Time;durP1;ratioP1;P1;durP2;ratioP2;P2;SDS_P1;SDS_P2;PMS_P1;PMS_P2;Temp;Humidity;BMP_temperature;BMP_pressure;BME280_temperature;BME280_humidity;BME280_pressure;Samples;Min_cycle;Max_cycle;Signal;HPM_P1;HPM_P2
2021/06/23 00:01:52;;;;;;;;;;;;;;;;;;5113843;27;19912;-51
2021/06/23 00:04:18;;;;;;;;;;;;;;;;;;5113635;28;19908;-53
2021/06/23 00:06:44;;;;;;;;;;;;;;;;;;5113856;28;19911;-51
2021/06/23 00:09:10;;;;;;;;;;;;;;;;;;5111480;27;19920;-49
2021/06/23 00:11:36;;;;;;;;;;;;;;;;;;5113330;27;20398;-53
2021/06/23 00:14:02;;;;;;;;;;;;;;;;;;5113456;28;19955;-51
2021/06/23 00:16:28;;;;;;;;;;;;;;;;;;5115614;28;20278;-52
2021/06/23 00:18:53;;;;;;;;;;;;;;;;;;5120351;27;19922;-49
2021/06/23 00:21:19;;;;;;;;;;;;;;;;;;5119392;27;20030;-49
2021/06/23 00:23:45;;;;;;;;;;;;;;;;;;5117686;27;19920;-52
2021/06/23 00:26:11;;;;;;;;;;;;;;;;;;5122880;27;19935;-54
2021/06/23 00:28:37;;;;;;;;;;;;;;;;;;5120251;27;19912;-53
2021/06/23 00:31:03;;;;;;;;;;;;;;;;;;5120514;27;19916;-50
2021/06/23 00:33:29;;;;;;;;;;;;;;;;;;5120244;27;19911;-51
2021/06/23 00:35:55;;;;;;;;;;;;;;;;;;5115312;27;20100;-51
2021/06/23 00:38:20;;;;;;;;;;;;;;;;;;5123604;27;19908;-50
2021/06/23 00:40:46;;;;;;;;;;;;;;;;;;5120596;27;19912;-51
2021/06/23 00:43:12;;;;;;;;;;;;;;;;;;5119641;27;19976;-49
2021/06/23 00:45:38;;;;;;;;;;;;;;;;;;5121633;27;20029;-48
2021/06/23 00:48:08;;;;;;;;;;;;;;;;;;5116830;27;19919;-49
2021/06/23 00:50:34;;;;;;;;;;;;;;;;;;5120397;27;20361;-50
2021/06/23 00:53:00;;;;;;;;;;;;;;;;;;5121357;27;19965;-50
2021/06/23 00:55:26;;;;;;;;;;;;;;;;;;5120225;27;19920;-52
2021/06/23 00:57:52;;;;;;;;;;;;;;;;;;5119378;27;20390;-51
2021/06/23 01:00:18;;;;;;;;;;;;;;;;;;5119048;27;19915;-50
2021/06/23 01:02:44;;;;;;;;;;;;;;;;;;5117327;27;20272;-49
2021/06/23 01:05:10;;;;;;;;;;;;;;;;;;5122397;27;19908;-49
2021/06/23 01:07:35;;;;;;;;;;;;;;;;;;5120271;27;19912;-52
2021/06/23 01:10:01;;;;;;;;;;;;;;;;;;5119355;27;20014;-49
2021/06/23 01:12:27;;;;;;;;;;;;;;;;;;5119130;27;20294;-51
2021/06/23 01:14:53;;;;;;;;;;;;;;;;;;5115270;27;19924;-49
2021/06/23 01:17:20;;;;;;;;;;;;;;;;;;5123585;27;19907;-52
2021/06/23 01:19:46;;;;;;;;;;;;;;;;;;5120528;27;19915;-54
2021/06/23 01:22:13;;;;;;;;;;;;;;;;;;5119285;27;19919;-51
2021/06/23 01:24:39;;;;;;;;;;;;;;;;;;5120012;27;19911;-54
2021/06/23 01:27:05;;;;;;;;;;;;;;;;;;5116691;27;19912;-52
2021/06/23 01:29:31;;;;;;;;;;;;;;;;;;5116567;27;20346;-52
2021/06/23 01:31:57;;;;;;;;;;;;;;;;;;5117483;27;19908;-53
2021/06/23 01:34:23;;;;;;;;;;;;;;;;;;5098010;28;19920;-53
2021/06/23 01:36:49;;;;;;;;;;;;;;;;;;5116308;27;19955;-50
2021/06/23 01:39:15;;;;;;;;;;;;;;;;;;5114880;27;19956;-55
2021/06/23 01:41:41;;;;;;;;;;;;;;;;;;5114664;27;19961;-52
2021/06/23 01:44:06;;;;;;;;;;;;;;;;;;5118255;27;20382;-53
2021/06/23 01:46:32;;;;;;;;;;;;;;;;;;5117644;27;19999;-50
2021/06/23 01:48:58;;;;;;;;;;;;;;;;;;5115737;27;19912;-52
2021/06/23 01:51:24;;;;;;;;;;;;;;;;;;5116019;27;19911;-51
2021/06/23 01:53:50;;;;;;;;;;;;;;;;;;5111874;28;19920;-52
2021/06/23 01:56:16;;;;;;;;;;;;;;;;;;5119301;27;20294;-48
2021/06/23 01:58:42;;;;;;;;;;;;;;;;;;5116404;27;19919;-51
2021/06/23 02:01:08;;;;;;;;;;;;;;;;;;5097221;28;19911;-50
2021/06/23 02:03:34;;;;;;;;;;;;;;;;;;5116263;27;19911;-50
2021/06/23 02:05:59;;;;;;;;;;;;;;;;;;5112179;27;19912;-52
2021/06/23 02:08:25;;;;;;;;;;;;;;;;;;5117943;27;20227;-50
2021/06/23 02:10:51;;;;;;;;;;;;;;;;;;5116084;27;19926;-50
2021/06/23 02:13:17;;;;;;;;;;;;;;;;;;5115643;27;19957;-51
2021/06/23 02:15:43;;;;;;;;;;;;;;;;;;5115100;27;20349;-51
2021/06/23 02:18:09;;;;;;;;;;;;;;;;;;5113596;27;19966;-53
2021/06/23 02:20:35;;;;;;;;;;;;;;;;;;5115908;27;20432;-52
2021/06/23 02:23:01;;;;;;;;;;;;;;;;;;5116514;27;20272;-49
2021/06/23 02:25:27;;;;;;;;;;;;;;;;;;5116077;27;19956;-51
2021/06/23 02:27:53;;;;;;;;;;;;;;;;;;5115470;27;19916;-53
2021/06/23 02:30:19;;;;;;;;;;;;;;;;;;5114488;27;19958;-51
2021/06/23 02:32:45;;;;;;;;;;;;;;;;;;5112953;27;20274;-49
2021/06/23 02:35:11;;;;;;;;;;;;;;;;;;5117818;27;19923;-52
2021/06/23 02:37:37;;;;;;;;;;;;;;;;;;5114866;27;19912;-53
2021/06/23 02:40:03;;;;;;;;;;;;;;;;;;5113196;27;19912;-53
2021/06/23 02:42:29;;;;;;;;;;;;;;;;;;5116632;27;19915;-52
2021/06/23 02:44:55;;;;;;;;;;;;;;;;;;5111125;28;20382;-51
2021/06/23 02:47:21;;;;;;;;;;;;;;;;;;5118301;27;19908;-53
2021/06/23 02:49:46;;;;;;;;;;;;;;;;;;5114557;27;19912;-50
2021/06/23 02:52:13;;;;;;;;;;;;;;;;;;5114587;27;20447;-53
2021/06/23 02:54:39;;;;;;;;;;;;;;;;;;5096379;27;19951;-54
2021/06/23 02:57:04;;;;;;;;;;;;;;;;;;5111942;27;19940;-54
2021/06/23 02:59:30;;;;;;;;;;;;;;;;;;5115127;27;19912;-52
2021/06/23 03:01:56;;;;;;;;;;;;;;;;;;5115844;27;19907;-53
2021/06/23 03:04:22;;;;;;;;;;;;;;;;;;5114701;27;19916;-52
2021/06/23 03:06:48;;;;;;;;;;;;;;;;;;5114794;27;19947;-52
2021/06/23 03:09:14;;;;;;;;;;;;;;;;;;5112831;27;19935;-54
2021/06/23 03:11:40;;;;;;;;;;;;;;;;;;5113901;27;20331;-54
2021/06/23 03:14:06;;;;;;;;;;;;;;;;;;5115493;27;19994;-54
2021/06/23 03:16:32;;;;;;;;;;;;;;;;;;5114768;27;19919;-53
2021/06/23 03:18:57;;;;;;;;;;;;;;;;;;5114374;27;19980;-50
2021/06/23 03:21:23;;;;;;;;;;;;;;;;;;5115724;27;19918;-51
2021/06/23 03:23:49;;;;;;;;;;;;;;;;;;5110451;28;19912;-49
2021/06/23 03:26:15;;;;;;;;;;;;;;;;;;5117438;27;20385;-52
2021/06/23 03:28:41;;;;;;;;;;;;;;;;;;5113958;27;20000;-50
2021/06/23 03:31:07;;;;;;;;;;;;;;;;;;5114343;27;20009;-51
2021/06/23 03:33:33;;;;;;;;;;;;;;;;;;5113942;27;19918;-55
2021/06/23 03:35:59;;;;;;;;;;;;;;;;;;5110233;27;19942;-53
2021/06/23 03:38:25;;;;;;;;;;;;;;;;;;5116172;27;19957;-54
2021/06/23 03:40:50;;;;;;;;;;;;;;;;;;5116525;27;20277;-53
2021/06/23 03:43:17;;;;;;;;;;;;;;;;;;5114244;27;19916;-53
2021/06/23 03:45:43;;;;;;;;;;;;;;;;;;5113864;27;19918;-53
2021/06/23 03:48:09;;;;;;;;;;;;;;;;;;5111743;27;20002;-52
2021/06/23 03:50:34;;;;;;;;;;;;;;;;;;5094973;28;20001;-52
2021/06/23 03:53:00;;;;;;;;;;;;;;;;;;5125261;27;19934;-53
2021/06/23 03:55:26;;;;;;;;;;;;;;;;;;5119628;27;19919;-54
2021/06/23 03:57:52;;;;;;;;;;;;;;;;;;5123151;27;20335;-51
2021/06/23 04:00:18;;;;;;;;;;;;;;;;;;5121497;27;19920;-53
2021/06/23 04:02:44;;;;;;;;;;;;;;;;;;5122114;27;20266;-51
2021/06/23 04:05:10;;;;;;;;;;;;;;;;;;5125597;27;19915;-51
2021/06/23 04:07:36;;;;;;;;;;;;;;;;;;5126196;27;19915;-51
2021/06/23 04:10:02;;;;;;;;;;;;;;;;;;5119993;27;19927;-55
2021/06/23 04:12:28;;;;;;;;;;;;;;;;;;5113846;27;19912;-49
2021/06/23 04:14:54;;;;;;;;;;;;;;;;;;5109257;28;19953;-53
2021/06/23 04:17:20;;;;;;;;;;;;;;;;;;5112653;28;19953;-50
2021/06/23 04:19:46;;;;;;;;;;;;;;;;;;5112726;28;20131;-54
2021/06/23 04:22:12;;;;;;;;;;;;;;;;;;5113369;28;19912;-49
2021/06/23 04:24:38;;;;;;;;;;;;;;;;;;5113309;28;20032;-52
2021/06/23 04:27:03;;;;;;;;;;;;;;;;;;5110411;28;19924;-49
2021/06/23 04:29:29;;;;;;;;;;;;;;;;;;5111083;28;19907;-53
2021/06/23 04:31:55;;;;;;;;;;;;;;;;;;5115429;28;19912;-52
2021/06/23 04:34:21;;;;;;;;;;;;;;;;;;5113302;28;20309;-54
2021/06/23 04:36:47;;;;;;;;;;;;;;;;;;5113439;28;19912;-53
2021/06/23 04:39:13;;;;;;;;;;;;;;;;;;5112075;28;19915;-51
2021/06/23 04:41:39;;;;;;;;;;;;;;;;;;5110662;28;19915;-52
2021/06/23 04:44:05;;;;;;;;;;;;;;;;;;5114975;28;19918;-47
2021/06/23 04:46:33;;;;;;;;;;;;;;;;;;5113474;28;20486;-49
2021/06/23 04:48:59;;;;;;;;;;;;;;;;;;5113241;28;19912;-47
2021/06/23 04:51:25;;;;;;;;;;;;;;;;;;5111602;28;19911;-51
2021/06/23 04:53:51;;;;;;;;;;;;;;;;;;5092307;28;19916;-49
2021/06/23 04:56:17;;;;;;;;;;;;;;;;;;5116522;28;19916;-49
2021/06/23 04:58:43;;;;;;;;;;;;;;;;;;5113402;28;20424;-48
2021/06/23 05:01:08;;;;;;;;;;;;;;;;;;5113487;28;19912;-49
2021/06/23 05:03:34;;;;;;;;;;;;;;;;;;5113117;27;19912;-53
2021/06/23 05:06:01;;;;;;;;;;;;;;;;;;5113547;27;20374;-52
2021/06/23 05:08:27;;;;;;;;;;;;;;;;;;5118871;27;19915;-51
2021/06/23 05:10:53;;;;;;;;;;;;;;;;;;5101527;28;19923;-50
2021/06/23 05:13:19;;;;;;;;;;;;;;;;;;5098142;28;19915;-51
2021/06/23 05:15:44;;;;;;;;;;;;;;;;;;5116540;27;19926;-51
2021/06/23 05:18:10;;;;;;;;;;;;;;;;;;5114876;27;19912;-48
2021/06/23 05:20:36;;;;;;;;;;;;;;;;;;5116957;27;19998;-50
2021/06/23 05:23:02;;;;;;;;;;;;;;;;;;5117542;27;19930;-49
2021/06/23 05:25:28;;;;;;;;;;;;;;;;;;5116738;27;20362;-49
2021/06/23 05:27:54;;;;;;;;;;;;;;;;;;5116179;27;19915;-50
2021/06/23 05:30:20;;;;;;;;;;;;;;;;;;5115924;27;19918;-53
2021/06/23 05:32:46;;;;;;;;;;;;;;;;;;5113866;27;19920;-50
2021/06/23 05:35:12;;;;;;;;;;;;;;;;;;5119114;27;19920;-50
2021/06/23 05:37:37;;;;;;;;;;;;;;;;;;5116619;27;20448;-50
2021/06/23 05:40:03;;;;;;;;;;;;;;;;;;5116373;27;19927;-49
2021/06/23 05:42:29;;;;;;;;;;;;;;;;;;5115789;27;19995;-52
2021/06/23 05:44:56;;;;;;;;;;;;;;;;;;5111771;27;20144;-49
2021/06/23 05:47:22;;;;;;;;;;;;;;;;;;5119121;27;20018;-50
2021/06/23 05:49:48;;;;;;;;;;;;;;;;;;5118163;27;19995;-52
2021/06/23 05:52:14;;;;;;;;;;;;;;;;;;5115808;27;19922;-50
2021/06/23 05:54:40;;;;;;;;;;;;;;;;;;5115147;27;19920;-51
2021/06/23 05:57:06;;;;;;;;;;;;;;;;;;5112907;27;20363;-50
2021/06/23 05:59:32;;;;;;;;;;;;;;;;;;5116397;27;19908;-49
2021/06/23 06:01:58;;;;;;;;;;;;;;;;;;5117107;27;19908;-52
2021/06/23 06:04:23;;;;;;;;;;;;;;;;;;5107576;28;19989;-51
2021/06/23 06:06:49;;;;;;;;;;;;;;;;;;5114207;27;19919;-50
2021/06/23 06:09:15;;;;;;;;;;;;;;;;;;5110169;27;20252;-49
2021/06/23 06:11:41;;;;;;;;;;;;;;;;;;5113407;27;20256;-51
2021/06/23 06:14:07;;;;;;;;;;;;;;;;;;5115936;27;19915;-49
2021/06/23 06:16:33;;;;;;;;;;;;;;;;;;5099906;27;20338;-53
2021/06/23 06:18:59;;;;;;;;;;;;;;;;;;5111318;27;19994;-52
2021/06/23 06:21:25;;;;;;;;;;;;;;;;;;5113577;27;20010;-50
2021/06/23 06:23:51;;;;;;;;;;;;;;;;;;5110376;28;19979;-50
2021/06/23 06:26:16;;;;;;;;;;;;;;;;;;5116953;27;19908;-51
2021/06/23 06:28:42;;;;;;;;;;;;;;;;;;5107690;27;19912;-53
2021/06/23 06:31:08;;;;;;;;;;;;;;;;;;5107001;27;19912;-51
2021/06/23 06:33:34;;;;;;;;;;;;;;;;;;5114120;27;20010;-53
2021/06/23 06:36:00;;;;;;;;;;;;;;;;;;5110396;27;20008;-50
2021/06/23 06:38:26;;;;;;;;;;;;;;;;;;5115967;27;19912;-51
2021/06/23 06:40:52;;;;;;;;;;;;;;;;;;5107342;27;19911;-51
2021/06/23 06:43:18;;;;;;;;;;;;;;;;;;5108781;27;20370;-53
2021/06/23 06:45:46;;;;;;;;;;;;;;;;;;5113761;27;20027;-51
2021/06/23 06:48:12;;;;;;;;;;;;;;;;;;5112361;27;19998;-53
2021/06/23 06:50:37;;;;;;;;;;;;;;;;;;5112886;27;19954;-56
2021/06/23 06:53:03;;;;;;;;;;;;;;;;;;5117183;27;20461;-55
2021/06/23 06:55:29;;;;;;;;;;;;;;;;;;5114954;27;19919;-68
2021/06/23 06:57:56;;;;;;;;;;;;;;;;;;5114830;27;20010;-66
2021/06/23 07:00:22;;;;;;;;;;;;;;;;;;5114421;27;19912;-66
2021/06/23 07:02:47;;;;;;;;;;;;;;;;;;5111733;27;19958;-66
2021/06/23 07:05:14;;;;;;;;;;;;;;;;;;5117627;27;20349;-64
2021/06/23 07:07:39;;;;;;;;;;;;;;;;;;5114947;27;19912;-67
2021/06/23 07:10:05;;;;;;;;;;;;;;;;;;5114272;27;19927;-66
2021/06/23 07:12:31;;;;;;;;;;;;;;;;;;5114255;27;19992;-68
2021/06/23 07:14:57;;;;;;;;;;;;;;;;;;5110673;27;19920;-67
2021/06/23 07:17:23;;;;;;;;;;;;;;;;;;5116957;27;19995;-67
2021/06/23 07:19:49;;;;;;;;;;;;;;;;;;5114298;27;19908;-67
2021/06/23 07:22:15;;;;;;;;;;;;;;;;;;5114198;27;19934;-67
2021/06/23 07:24:41;;;;;;;;;;;;;;;;;;5114448;27;20019;-69
2021/06/23 07:27:06;;;;;;;;;;;;;;;;;;5092839;28;19934;-67
2021/06/23 07:29:32;;;;;;;;;;;;;;;;;;5114426;27;19908;-67
2021/06/23 07:32:00;;;;;;;;;;;;;;;;;;5115626;27;19960;-67
2021/06/23 07:36:58;;;;;;;;;;;;;;;;;;5114457;27;19947;-67
2021/06/23 07:39:25;;;;;;;;;;;;;;;;;;5114160;27;19915;-67
2021/06/23 07:41:50;;;;;;;;;;;;;;;;;;5110293;28;19967;-67
2021/06/23 07:44:19;;;;;;;;;;;;;;;;;;5117091;27;19908;-67
2021/06/23 07:46:52;;;;;;;;;;;;;;;;;;5113619;27;19921;-68
2021/06/23 07:49:19;;;;;;;;;;;;;;;;;;5095292;28;20378;-67
2021/06/23 08:10:53;;;;;;;;;;;;;;;;;;5113028;27;19927;-68
2021/06/23 08:13:11;;;;;;;;;;;;;;;;;;5110481;27;19998;-68
2021/06/23 08:15:37;;;;;;;;;;;;;;;;;;5113942;28;20354;-68
2021/06/23 08:18:03;;;;;;;;;;;;;;;;;;5110588;28;19996;-68
2021/06/23 08:20:29;;;;;;;;;;;;;;;;;;5115012;28;19915;-68
2021/06/23 08:22:55;;;;;;;;;;;;;;;;;;5116556;28;19908;-68
2021/06/23 08:25:21;;;;;;;;;;;;;;;;;;5113226;28;20329;-68
2021/06/23 08:27:47;;;;;;;;;;;;;;;;;;5113483;28;19916;-68
2021/06/23 08:30:14;;;;;;;;;;;;;;;;;;5111695;28;19916;-68
2021/06/23 08:32:39;;;;;;;;;;;;;;;;;;5113010;28;19960;-68
2021/06/23 08:35:05;;;;;;;;;;;;;;;;;;5114849;28;19920;-67
2021/06/23 08:37:31;;;;;;;;;;;;;;;;;;5114391;28;19911;-68
2021/06/23 08:39:57;;;;;;;;;;;;;;;;;;5099357;28;19912;-68
2021/06/23 08:42:23;;;;;;;;;;;;;;;;;;5117019;27;19911;-67
2021/06/23 08:44:49;;;;;;;;;;;;;;;;;;5113811;27;19912;-68
2021/06/23 08:47:15;;;;;;;;;;;;;;;;;;5120531;27;19930;-68
2021/06/23 08:49:41;;;;;;;;;;;;;;;;;;5117313;27;19912;-68
2021/06/23 08:52:07;;;;;;;;;;;;;;;;;;5117391;27;20419;-68
2021/06/23 08:54:33;;;;;;;;;;;;;;;;;;5117409;27;19911;-68
2021/06/23 08:56:59;;;;;;;;;;;;;;;;;;5113392;27;19943;-67
2021/06/23 08:59:25;;;;;;;;;;;;;;;;;;5119907;27;19933;-68
2021/06/23 09:01:50;;;;;;;;;;;;;;;;;;5117295;27;19911;-68
2021/06/23 09:04:18;;;;;;;;;;;;;;;;;;5117156;27;19998;-68
2021/06/23 09:06:44;;;;;;;;;;;;;;;;;;5098505;27;19916;-67
2021/06/23 09:09:10;;;;;;;;;;;;;;;;;;5114812;27;20344;-68
2021/06/23 09:11:36;;;;;;;;;;;;;;;;;;5098960;28;20272;-67
2021/06/23 09:14:02;;;;;;;;;;;;;;;;;;5117780;27;19912;-67
2021/06/23 09:16:28;;;;;;;;;;;;;;;;;;5117021;27;20374;-67
2021/06/23 09:18:54;;;;;;;;;;;;;;;;;;5116865;27;19920;-67
2021/06/23 09:21:19;;;;;;;;;;;;;;;;;;5115767;27;20394;-67
2021/06/23 09:23:46;;;;;;;;;;;;;;;;;;5114472;27;19912;-62
2021/06/23 09:26:12;;;;;;;;;;;;;;;;;;5119171;27;20242;-61
2021/06/23 09:28:37;;;;;;;;;;;;;;;;;;5116192;27;20412;-61
2021/06/23 09:31:06;;;;;;;;;;;;;;;;;;5116791;27;19965;-61
2021/06/23 09:33:32;;;;;;;;;;;;;;;;;;5116993;27;19964;-61
2021/06/23 09:35:59;;;;;;;;;;;;;;;;;;5112246;27;19932;-61
2021/06/23 09:38:24;;;;;;;;;;;;;;;;;;5118724;27;19916;-61
2021/06/23 09:40:50;;;;;;;;;;;;;;;;;;5116649;27;19985;-61
2021/06/23 09:43:16;;;;;;;;;;;;;;;;;;5116496;27;19918;-61
2021/06/23 09:45:42;;;;;;;;;;;;;;;;;;5115860;27;20353;-61
2021/06/23 09:48:09;;;;;;;;;;;;;;;;;;5113900;27;19912;-61
2021/06/23 09:50:35;;;;;;;;;;;;;;;;;;5115750;27;19912;-61
2021/06/23 09:53:01;;;;;;;;;;;;;;;;;;5117150;27;19915;-61
2021/06/23 09:55:27;;;;;;;;;;;;;;;;;;5115805;27;19972;-61
2021/06/23 09:57:53;;;;;;;;;;;;;;;;;;5116226;27;19912;-61
2021/06/23 10:00:19;;;;;;;;;;;;;;;;;;5114957;27;19915;-61
2021/06/23 10:02:45;;;;;;;;;;;;;;;;;;5113763;27;19923;-61
2021/06/23 10:05:11;;;;;;;;;;;;;;;;;;5118321;27;19915;-60
2021/06/23 10:07:37;;;;;;;;;;;;;;;;;;5115746;27;19915;-60
2021/06/23 10:10:03;;;;;;;;;;;;;;;;;;5115397;27;19927;-60
2021/06/23 10:12:29;;;;;;;;;;;;;;;;;;5115857;27;19912;-60
2021/06/23 10:14:55;;;;;;;;;;;;;;;;;;5111295;27;19919;-60
2021/06/23 10:17:20;;;;;;;;;;;;;;;;;;5119348;27;19990;-60
2021/06/23 10:19:46;;;;;;;;;;;;;;;;;;5115597;27;19966;-60
2021/06/23 10:22:12;;;;;;;;;;;;;;;;;;5114849;27;19912;-60
2021/06/23 10:24:38;;;;;;;;;;;;;;;;;;5115466;27;20355;-60
2021/06/23 10:27:04;;;;;;;;;;;;;;;;;;5112509;27;19923;-60
2021/06/23 10:29:30;;;;;;;;;;;;;;;;;;5116424;27;19912;-63
2021/06/23 10:31:56;;;;;;;;;;;;;;;;;;5117444;27;19908;-60
2021/06/23 10:34:22;;;;;;;;;;;;;;;;;;5115281;27;20310;-60
2021/06/23 10:36:48;;;;;;;;;;;;;;;;;;5115050;27;20320;-60
2021/06/23 10:39:15;;;;;;;;;;;;;;;;;;5113351;27;20069;-60
2021/06/23 10:41:40;;;;;;;;;;;;;;;;;;5114300;27;19915;-60
2021/06/23 10:44:06;;;;;;;;;;;;;;;;;;5116397;27;19931;-62
2021/06/23 10:46:32;;;;;;;;;;;;;;;;;;5115058;27;19912;-60
2021/06/23 10:49:00;;;;;;;;;;;;;;;;;;5115092;27;19955;-59
2021/06/23 10:51:26;;;;;;;;;;;;;;;;;;5115065;27;20392;-60
2021/06/23 10:53:52;;;;;;;;;;;;;;;;;;5094140;28;20002;-60
2021/06/23 10:56:18;;;;;;;;;;;;;;;;;;5118391;27;19915;-59
2021/06/23 10:58:44;;;;;;;;;;;;;;;;;;5114501;27;20317;-61
2021/06/23 11:01:10;;;;;;;;;;;;;;;;;;5113821;27;19920;-60
2021/06/23 11:03:36;;;;;;;;;;;;;;;;;;5114483;27;19915;-61
2021/06/23 11:06:02;;;;;;;;;;;;;;;;;;5111216;27;19918;-60
2021/06/23 11:08:28;;;;;;;;;;;;;;;;;;5115897;27;19953;-60
2021/06/23 11:10:54;;;;;;;;;;;;;;;;;;5101794;28;19924;-62
2021/06/23 11:13:20;;;;;;;;;;;;;;;;;;5107604;27;19934;-61
2021/06/23 11:15:49;;;;;;;;;;;;;;;;;;5123387;27;19962;-59
2021/06/23 11:18:15;;;;;;;;;;;;;;;;;;5112470;27;20378;-59
2021/06/23 11:20:41;;;;;;;;;;;;;;;;;;5113018;27;19915;-61
2021/06/23 11:23:07;;;;;;;;;;;;;;;;;;5115956;27;19914;-59
2021/06/23 11:25:34;;;;;;;;;;;;;;;;;;5114375;27;19957;-62
2021/06/23 11:28:00;;;;;;;;;;;;;;;;;;5114023;27;20476;-60
2021/06/23 11:30:26;;;;;;;;;;;;;;;;;;5114361;27;19915;-59
2021/06/23 11:32:51;;;;;;;;;;;;;;;;;;5075490;28;19911;-59
2021/06/23 11:35:17;;;;;;;;;;;;;;;;;;5116900;27;19920;-59
2021/06/23 11:37:43;;;;;;;;;;;;;;;;;;5114308;27;19990;-60
2021/06/23 11:40:09;;;;;;;;;;;;;;;;;;5113899;27;19961;-59
2021/06/23 11:42:35;;;;;;;;;;;;;;;;;;5095337;27;20024;-60
2021/06/23 11:45:01;;;;;;;;;;;;;;;;;;5110625;27;19965;-60
2021/06/23 11:47:27;;;;;;;;;;;;;;;;;;5115319;27;19911;-60
2021/06/23 11:49:53;;;;;;;;;;;;;;;;;;5114905;27;19913;-60
2021/06/23 11:52:19;;;;;;;;;;;;;;;;;;5113432;27;19912;-60
2021/06/23 11:54:45;;;;;;;;;;;;;;;;;;5113741;27;19920;-60
2021/06/23 11:57:11;;;;;;;;;;;;;;;;;;5111557;27;19919;-60
2021/06/23 11:59:43;;;;;;;;;;;;;;;;;;5113913;27;19908;-60
2021/06/23 12:02:08;;;;;;;;;;;;;;;;;;5115380;27;20420;-60
2021/06/23 12:04:34;;;;;;;;;;;;;;;;;;5113745;27;19920;-59
2021/06/23 12:07:00;;;;;;;;;;;;;;;;;;5113513;27;19911;-60
2021/06/23 12:09:26;;;;;;;;;;;;;;;;;;5113891;28;19964;-60
2021/06/23 12:11:52;;;;;;;;;;;;;;;;;;5092463;28;20004;-60
2021/06/23 12:14:18;;;;;;;;;;;;;;;;;;5117092;28;20304;-60
2021/06/23 12:16:44;;;;;;;;;;;;;;;;;;5113588;27;19973;-60
2021/06/23 12:19:10;;;;;;;;;;;;;;;;;;5113485;28;19915;-60
2021/06/23 12:21:36;;;;;;;;;;;;;;;;;;5113042;28;19922;-60
2021/06/23 12:24:02;;;;;;;;;;;;;;;;;;5110424;28;20429;-60
2021/06/23 12:26:28;;;;;;;;;;;;;;;;;;5114786;28;20006;-60
2021/06/23 12:28:54;;;;;;;;;;;;;;;;;;5114534;28;19915;-60
2021/06/23 12:31:20;;;;;;;;;;;;;;;;;;5113530;28;19934;-61
2021/06/23 12:33:46;;;;;;;;;;;;;;;;;;5112918;28;19912;-60
2021/06/23 12:36:11;;;;;;;;;;;;;;;;;;5111166;28;20014;-60
2021/06/23 12:38:37;;;;;;;;;;;;;;;;;;5113411;28;19912;-60
2021/06/23 12:41:03;;;;;;;;;;;;;;;;;;5095856;28;19908;-60
2021/06/23 12:43:29;;;;;;;;;;;;;;;;;;5113218;28;20347;-60
2021/06/23 12:45:55;;;;;;;;;;;;;;;;;;5113454;28;20362;-60
2021/06/23 12:48:21;;;;;;;;;;;;;;;;;;5112444;28;19911;-60
2021/06/23 12:50:47;;;;;;;;;;;;;;;;;;5110736;28;20465;-60
2021/06/23 12:53:13;;;;;;;;;;;;;;;;;;5115826;28;19992;-60
2021/06/23 12:55:39;;;;;;;;;;;;;;;;;;5112986;28;20287;-60
2021/06/23 12:58:05;;;;;;;;;;;;;;;;;;5112973;28;19918;-60
2021/06/23 13:00:30;;;;;;;;;;;;;;;;;;5113219;28;19913;-60
2021/06/23 13:02:56;;;;;;;;;;;;;;;;;;5108900;28;19911;-60
2021/06/23 13:05:22;;;;;;;;;;;;;;;;;;5115970;28;20363;-60
2021/06/23 13:07:48;;;;;;;;;;;;;;;;;;5114701;28;19913;-60
2021/06/23 13:10:14;;;;;;;;;;;;;;;;;;5113215;28;19935;-60
2021/06/23 13:12:40;;;;;;;;;;;;;;;;;;5112758;28;19911;-60
2021/06/23 13:15:06;;;;;;;;;;;;;;;;;;5110159;28;19920;-60
2021/06/23 13:17:32;;;;;;;;;;;;;;;;;;5094999;28;19951;-60
2021/06/23 13:19:58;;;;;;;;;;;;;;;;;;5114328;28;20171;-61
2021/06/23 13:22:24;;;;;;;;;;;;;;;;;;5113088;28;20398;-60
2021/06/23 13:24:50;;;;;;;;;;;;;;;;;;5114320;27;19958;-60
2021/06/23 13:27:16;;;;;;;;;;;;;;;;;;5115662;27;19912;-60
2021/06/23 13:29:42;;;;;;;;;;;;;;;;;;5115634;27;20044;-60
2021/06/23 13:32:08;;;;;;;;;;;;;;;;;;5117844;27;19908;-60
2021/06/23 13:34:34;;;;;;;;;;;;;;;;;;5116703;27;19967;-60
2021/06/23 13:37:00;;;;;;;;;;;;;;;;;;5116403;27;19912;-60
2021/06/23 13:39:26;;;;;;;;;;;;;;;;;;5116437;27;20317;-60
2021/06/23 13:41:52;;;;;;;;;;;;;;;;;;5095767;28;19912;-60
2021/06/23 13:44:18;;;;;;;;;;;;;;;;;;5119314;27;19908;-60
2021/06/23 13:46:44;;;;;;;;;;;;;;;;;;5116620;27;19912;-60
2021/06/23 13:49:09;;;;;;;;;;;;;;;;;;5098062;28;19916;-60
2021/06/23 13:51:35;;;;;;;;;;;;;;;;;;5116438;27;19919;-60
2021/06/23 13:54:01;;;;;;;;;;;;;;;;;;5112018;27;20283;-60
2021/06/23 13:56:28;;;;;;;;;;;;;;;;;;5118148;27;19976;-60
2021/06/23 13:58:54;;;;;;;;;;;;;;;;;;5116943;27;20321;-60
2021/06/23 14:01:20;;;;;;;;;;;;;;;;;;5115843;27;19912;-60
2021/06/23 14:03:46;;;;;;;;;;;;;;;;;;5115861;27;19919;-60
2021/06/23 14:06:12;;;;;;;;;;;;;;;;;;5113971;27;20347;-60
2021/06/23 14:08:37;;;;;;;;;;;;;;;;;;5097291;28;19908;-60
2021/06/23 14:11:03;;;;;;;;;;;;;;;;;;5117250;27;20397;-60
2021/06/23 14:13:29;;;;;;;;;;;;;;;;;;5116132;27;19919;-60
2021/06/23 14:15:55;;;;;;;;;;;;;;;;;;5114767;27;19930;-60
2021/06/23 14:18:21;;;;;;;;;;;;;;;;;;5114987;27;19912;-60
2021/06/23 14:20:47;;;;;;;;;;;;;;;;;;5113138;27;19920;-60
2021/06/23 14:23:13;;;;;;;;;;;;;;;;;;5118278;27;19994;-60
2021/06/23 14:25:39;;;;;;;;;;;;;;;;;;5115819;27;19912;-60
2021/06/23 14:28:05;;;;;;;;;;;;;;;;;;5115388;27;20273;-60
2021/06/23 14:30:31;;;;;;;;;;;;;;;;;;5115319;27;19922;-60
2021/06/23 14:32:57;;;;;;;;;;;;;;;;;;5111353;27;19912;-60
2021/06/23 14:35:22;;;;;;;;;;;;;;;;;;5118246;27;20320;-60
2021/06/23 14:37:48;;;;;;;;;;;;;;;;;;5115616;27;20274;-60
2021/06/23 14:40:14;;;;;;;;;;;;;;;;;;5115193;27;19939;-60
2021/06/23 14:42:40;;;;;;;;;;;;;;;;;;5115399;27;19919;-60
2021/06/23 14:45:06;;;;;;;;;;;;;;;;;;5112623;27;19949;-60
2021/06/23 14:47:32;;;;;;;;;;;;;;;;;;5116053;27;20389;-59
2021/06/23 14:49:58;;;;;;;;;;;;;;;;;;5097571;28;19924;-59
2021/06/23 14:52:24;;;;;;;;;;;;;;;;;;5114293;27;19911;-60
2021/06/23 14:54:50;;;;;;;;;;;;;;;;;;5114794;27;20015;-60
2021/06/23 14:57:16;;;;;;;;;;;;;;;;;;5110518;27;20267;-59
2021/06/23 14:59:41;;;;;;;;;;;;;;;;;;5108902;27;20328;-59
2021/06/23 15:02:07;;;;;;;;;;;;;;;;;;5093501;28;19908;-59
2021/06/23 15:04:33;;;;;;;;;;;;;;;;;;5113188;27;19916;-59
2021/06/23 15:06:59;;;;;;;;;;;;;;;;;;5115123;27;19946;-61
2021/06/23 15:09:25;;;;;;;;;;;;;;;;;;5112808;27;19920;-60
2021/06/23 15:11:51;;;;;;;;;;;;;;;;;;5107475;27;19920;-61
2021/06/23 15:14:17;;;;;;;;;;;;;;;;;;5116268;27;19911;-62
2021/06/23 15:16:43;;;;;;;;;;;;;;;;;;5095320;28;19927;-64
2021/06/23 15:19:09;;;;;;;;;;;;;;;;;;5113729;27;20290;-60
2021/06/23 15:21:37;;;;;;;;;;;;;;;;;;5113188;27;20002;-61
2021/06/23 15:24:03;;;;;;;;;;;;;;;;;;5110106;27;20389;-60
2021/06/23 15:26:29;;;;;;;;;;;;;;;;;;5122858;27;20002;-60
2021/06/23 15:28:55;;;;;;;;;;;;;;;;;;5098018;28;20294;-61
2021/06/23 15:31:21;;;;;;;;;;;;;;;;;;5113279;27;19916;-60
2021/06/23 15:33:47;;;;;;;;;;;;;;;;;;5112906;27;19931;-61
2021/06/23 15:36:12;;;;;;;;;;;;;;;;;;5113218;27;19924;-60
2021/06/23 15:38:39;;;;;;;;;;;;;;;;;;5111466;27;19912;-60
2021/06/23 15:41:05;;;;;;;;;;;;;;;;;;5113879;27;19915;-61
2021/06/23 15:43:31;;;;;;;;;;;;;;;;;;5113846;27;19912;-61
2021/06/23 15:45:57;;;;;;;;;;;;;;;;;;5112838;27;19919;-61
2021/06/23 15:48:23;;;;;;;;;;;;;;;;;;5106804;28;20390;-60
2021/06/23 15:50:49;;;;;;;;;;;;;;;;;;5108826;28;20328;-62
2021/06/23 15:53:15;;;;;;;;;;;;;;;;;;5115542;27;19912;-62
2021/06/23 15:55:41;;;;;;;;;;;;;;;;;;5112086;27;19919;-60
2021/06/23 15:58:07;;;;;;;;;;;;;;;;;;5115494;27;19990;-62
2021/06/23 16:00:32;;;;;;;;;;;;;;;;;;5119861;27;19912;-61
2021/06/23 16:02:58;;;;;;;;;;;;;;;;;;5120169;27;19918;-61
2021/06/23 16:05:27;;;;;;;;;;;;;;;;;;5124715;27;20676;-62
2021/06/23 16:07:53;;;;;;;;;;;;;;;;;;5121200;27;19972;-62
2021/06/23 16:10:18;;;;;;;;;;;;;;;;;;5112607;27;19954;-61
2021/06/23 16:12:44;;;;;;;;;;;;;;;;;;5120888;27;19916;-62
2021/06/23 16:15:10;;;;;;;;;;;;;;;;;;5121094;27;20293;-62
2021/06/23 16:17:36;;;;;;;;;;;;;;;;;;5120850;27;19922;-62
2021/06/23 16:20:02;;;;;;;;;;;;;;;;;;5122230;28;19915;-61
2021/06/23 16:22:33;;;;;;;;;;;;;;;;;;5123936;28;19912;-61
2021/06/23 16:24:59;;;;;;;;;;;;;;;;;;5122260;28;19912;-61
2021/06/23 16:27:25;;;;;;;;;;;;;;;;;;5120807;28;19956;-61
2021/06/23 16:29:51;;;;;;;;;;;;;;;;;;5109027;28;20401;-61
2021/06/23 16:32:17;;;;;;;;;;;;;;;;;;5126157;28;19907;-61
2021/06/23 16:34:43;;;;;;;;;;;;;;;;;;5121850;28;20010;-61
2021/06/23 16:37:09;;;;;;;;;;;;;;;;;;5122422;28;19962;-61
2021/06/23 16:39:35;;;;;;;;;;;;;;;;;;5119333;28;19919;-61
2021/06/23 16:42:01;;;;;;;;;;;;;;;;;;5111119;28;20257;-60
2021/06/23 16:44:27;;;;;;;;;;;;;;;;;;5115713;28;20021;-61
2021/06/23 16:46:53;;;;;;;;;;;;;;;;;;5094338;28;20009;-60
2021/06/23 16:49:19;;;;;;;;;;;;;;;;;;5111993;28;20390;-60
2021/06/23 16:51:44;;;;;;;;;;;;;;;;;;5110798;28;20608;-60
2021/06/23 16:54:10;;;;;;;;;;;;;;;;;;5100820;28;19916;-60
2021/06/23 16:56:36;;;;;;;;;;;;;;;;;;5113429;28;19916;-61
2021/06/23 16:59:02;;;;;;;;;;;;;;;;;;5113788;28;20359;-59